createdAt,value
2022-07-25T00:01:16.316Z,17.26
2022-07-25T00:04:09.246Z,17.26
2022-07-25T00:06:57.186Z,16.54
2022-07-25T00:09:43.221Z,17.21
2022-07-25T00:12:31.634Z,17.20
2022-07-25T00:15:16.864Z,16.17
2022-07-25T00:18:02.389Z,17.27
2022-07-25T00:20:47.740Z,17.24
2022-07-25T00:23:33.229Z,16.17
2022-07-25T00:26:18.846Z,16.40
2022-07-25T00:29:04.485Z,16.41
2022-07-25T00:31:49.933Z,17.23
2022-07-25T00:34:35.211Z,16.89
2022-07-25T00:37:20.504Z,16.39
2022-07-25T00:40:06.312Z,16.12
2022-07-25T00:42:51.643Z,16.95
2022-07-25T00:45:37.130Z,15.91
2022-07-25T00:48:22.411Z,16.73
2022-07-25T00:51:09.335Z,15.67
2022-07-25T00:53:57.378Z,15.71
2022-07-25T00:56:43.735Z,16.42
2022-07-25T00:59:29.304Z,15.04
2022-07-25T01:02:14.780Z,14.83
2022-07-25T01:04:59.985Z,14.69
2022-07-25T01:07:46.746Z,14.87
2022-07-25T01:10:33.465Z,14.74
2022-07-25T01:13:18.740Z,15.17
2022-07-25T01:16:06.971Z,15.37
2022-07-25T01:18:52.545Z,15.15
2022-07-25T01:21:39.520Z,15.12
2022-07-25T01:24:24.827Z,16.10
2022-07-25T01:27:10.033Z,15.08
2022-07-25T01:30:04.886Z,15.90
2022-07-25T01:32:50.184Z,16.05
2022-07-25T01:35:38.982Z,16.02
2022-07-25T01:38:27.085Z,15.96
2022-07-25T01:41:12.439Z,15.90
2022-07-25T01:44:08.233Z,15.91
2022-07-25T01:46:54.226Z,15.89
2022-07-25T01:49:40.059Z,15.62
2022-07-25T01:52:25.436Z,15.89
2022-07-25T01:55:11.435Z,14.96
2022-07-25T01:57:56.907Z,15.29
2022-07-25T02:00:43.154Z,14.52
2022-07-25T02:03:31.300Z,15.91
2022-07-25T02:06:17.971Z,15.76
2022-07-25T02:09:04.413Z,15.90
2022-07-25T02:11:49.805Z,14.87
2022-07-25T02:14:35.181Z,15.98
2022-07-25T02:17:20.729Z,15.82
2022-07-25T02:20:06.944Z,15.79
2022-07-25T02:22:52.410Z,14.67
2022-07-25T02:25:38.326Z,15.10
2022-07-25T02:28:23.662Z,15.29
2022-07-25T02:31:09.729Z,15.84
2022-07-25T02:33:54.870Z,14.99
2022-07-25T02:36:40.076Z,15.01
2022-07-25T02:39:25.584Z,14.90
2022-07-25T02:42:10.722Z,14.78
2022-07-25T02:44:55.991Z,15.88
2022-07-25T02:47:41.137Z,15.57
2022-07-25T02:50:26.652Z,14.58
2022-07-25T02:53:11.947Z,14.59
2022-07-25T02:55:57.181Z,15.29
2022-07-25T02:58:44.156Z,15.56
2022-07-25T03:01:29.934Z,15.58
2022-07-25T03:04:15.519Z,15.57
2022-07-25T03:07:02.361Z,15.51
2022-07-25T03:09:47.549Z,14.55
2022-07-25T03:12:33.190Z,15.36
2022-07-25T03:15:18.544Z,15.47
2022-07-25T03:18:03.934Z,14.19
2022-07-25T03:20:49.760Z,14.30
2022-07-25T03:23:35.241Z,14.97
2022-07-25T03:26:21.072Z,14.30
2022-07-25T03:29:06.605Z,15.32
2022-07-25T03:31:51.846Z,15.57
2022-07-25T03:34:37.447Z,14.38
2022-07-25T03:37:23.008Z,14.47
2022-07-25T03:40:09.885Z,15.67
2022-07-25T03:42:55.648Z,14.53
2022-07-25T03:45:40.966Z,15.17
2022-07-25T03:48:26.338Z,15.76
2022-07-25T03:51:11.639Z,14.64
2022-07-25T03:54:03.087Z,15.58
2022-07-25T03:56:50.407Z,14.56
2022-07-25T03:59:35.820Z,15.40
2022-07-25T04:02:21.210Z,14.06
2022-07-25T04:05:08.119Z,14.14
2022-07-25T04:07:53.402Z,15.36
2022-07-25T04:10:38.749Z,14.34
2022-07-25T04:13:24.157Z,14.34
2022-07-25T04:16:14.600Z,15.61
2022-07-25T04:19:05.153Z,15.57
2022-07-25T04:21:52.083Z,15.81
2022-07-25T04:24:37.626Z,15.81
2022-07-25T04:27:22.922Z,15.77
2022-07-25T04:30:08.741Z,15.85
2022-07-25T04:32:54.309Z,14.85
2022-07-25T04:35:40.129Z,14.66
2022-07-25T04:38:25.724Z,15.63
2022-07-25T04:41:11.677Z,15.52
2022-07-25T04:43:57.223Z,14.63
2022-07-25T04:46:42.576Z,15.17
2022-07-25T04:49:27.833Z,15.39
2022-07-25T04:52:13.109Z,15.45
2022-07-25T04:54:58.405Z,16.95
2022-07-25T04:57:43.864Z,17.35
2022-07-25T05:00:29.560Z,17.77
2022-07-25T05:03:14.644Z,17.09
2022-07-25T05:06:00.110Z,17.80
2022-07-25T05:08:45.406Z,18.92
2022-07-25T05:11:30.900Z,19.12
2022-07-25T05:14:16.333Z,19.46
2022-07-25T05:17:01.608Z,18.80
2022-07-25T05:19:47.057Z,18.93
2022-07-25T05:22:32.492Z,20.10
2022-07-25T05:25:18.898Z,20.51
2022-07-25T05:28:04.567Z,19.90
2022-07-25T05:30:50.106Z,20.31
2022-07-25T05:33:35.825Z,21.38
2022-07-25T05:36:20.997Z,20.55
2022-07-25T05:39:06.880Z,21.74
2022-07-25T05:41:52.315Z,21.86
2022-07-25T05:44:37.623Z,21.24
2022-07-25T05:47:23.102Z,21.69
2022-07-25T05:50:09.061Z,21.38
2022-07-25T05:52:54.632Z,22.44
2022-07-25T05:55:40.226Z,22.42
2022-07-25T05:58:29.863Z,21.70
2022-07-25T06:01:16.161Z,22.84
2022-07-25T06:04:01.914Z,22.05
2022-07-25T06:06:53.468Z,23.06
2022-07-25T06:09:39.127Z,23.01
2022-07-25T06:12:24.769Z,23.22
2022-07-25T06:15:12.556Z,23.13
2022-07-25T06:18:08.201Z,22.02
2022-07-25T06:20:53.662Z,22.68
2022-07-25T06:23:39.057Z,22.32
2022-07-25T06:26:24.841Z,22.28
2022-07-25T06:29:10.392Z,21.90
2022-07-25T06:31:56.084Z,22.74
2022-07-25T06:34:42.065Z,22.88
2022-07-25T06:37:28.071Z,22.96
2022-07-25T06:40:14.666Z,22.94
2022-07-25T06:43:00.711Z,23.08
2022-07-25T06:45:47.690Z,23.12
2022-07-25T06:48:33.904Z,22.25
2022-07-25T06:51:20.968Z,22.34
2022-07-25T06:54:07.259Z,23.41
2022-07-25T06:56:53.430Z,23.36
2022-07-25T06:59:38.982Z,23.73
2022-07-25T07:02:24.743Z,23.23
2022-07-25T07:05:10.080Z,23.01
2022-07-25T07:07:55.575Z,23.33
2022-07-25T07:10:42.671Z,23.96
2022-07-25T07:13:27.818Z,22.91
2022-07-25T07:16:13.693Z,23.72
2022-07-25T07:18:59.163Z,22.98
2022-07-25T07:21:45.591Z,23.84
2022-07-25T07:24:31.632Z,22.95
2022-07-25T07:27:16.901Z,22.76
2022-07-25T07:30:05.308Z,22.70
2022-07-25T07:32:52.382Z,23.47
2022-07-25T07:35:37.715Z,23.27
2022-07-25T07:38:24.097Z,22.20
2022-07-25T07:41:09.577Z,22.97
2022-07-25T07:43:56.498Z,23.31
2022-07-25T07:46:42.358Z,22.43
2022-07-25T07:49:27.645Z,23.46
2022-07-25T07:52:12.911Z,23.08
2022-07-25T07:55:17.111Z,23.77
2022-07-25T07:58:03.313Z,23.78
2022-07-25T08:00:51.061Z,23.58
2022-07-25T08:03:36.661Z,23.70
2022-07-25T08:06:22.087Z,22.70
2022-07-25T08:09:07.611Z,22.69
2022-07-25T08:11:53.569Z,23.14
2022-07-25T08:14:39.170Z,23.10
2022-07-25T08:17:28.490Z,23.43
2022-07-25T08:20:35.754Z,23.78
2022-07-25T08:23:20.185Z,23.61
2022-07-25T08:26:06.590Z,23.54
2022-07-25T08:29:04.919Z,22.86
2022-07-25T08:31:57.548Z,23.74
2022-07-25T08:34:42.936Z,23.89
2022-07-25T08:37:28.721Z,23.99
2022-07-25T08:40:16.813Z,23.78
2022-07-25T08:43:04.399Z,23.49
2022-07-25T08:45:52.116Z,23.84
2022-07-25T08:48:39.073Z,23.77
2022-07-25T08:51:25.165Z,22.82
2022-07-25T08:54:11.010Z,23.34
2022-07-25T08:56:56.838Z,23.13
2022-07-25T08:59:42.947Z,23.47
2022-07-25T09:02:29.385Z,23.76
2022-07-25T09:05:14.973Z,23.75
2022-07-25T09:08:17.985Z,23.76
2022-07-25T09:11:04.002Z,23.82
2022-07-25T09:13:58.297Z,23.94
2022-07-25T09:16:45.586Z,23.89
2022-07-25T09:19:31.605Z,24.01
2022-07-25T09:22:16.918Z,22.96
2022-07-25T09:25:02.533Z,23.73
2022-07-25T09:27:47.884Z,23.09
2022-07-25T09:30:33.482Z,23.96
2022-07-25T09:33:18.762Z,24.21
2022-07-25T09:36:11.821Z,24.29
2022-07-25T09:39:01.017Z,23.62
2022-07-25T09:41:46.673Z,23.36
2022-07-25T09:44:32.282Z,24.28
2022-07-25T09:47:17.912Z,23.41
2022-07-25T09:50:04.264Z,24.30
2022-07-25T09:52:55.591Z,24.73
2022-07-25T09:55:41.299Z,24.76
2022-07-25T09:58:28.347Z,23.83
2022-07-25T10:01:20.539Z,23.98
2022-07-25T10:04:21.225Z,23.71
2022-07-25T10:07:12.661Z,24.04
2022-07-25T10:09:59.802Z,24.80
2022-07-25T10:13:11.079Z,24.97
2022-07-25T10:15:56.807Z,25.13
2022-07-25T10:18:49.755Z,24.28
2022-07-25T10:21:35.528Z,24.23
2022-07-25T10:24:20.984Z,25.02
2022-07-25T10:27:11.549Z,24.33
2022-07-25T10:29:57.026Z,24.34
2022-07-25T10:33:02.071Z,25.23
2022-07-25T10:35:47.605Z,25.20
2022-07-25T10:38:33.569Z,25.18
2022-07-25T10:41:19.268Z,24.07
2022-07-25T10:44:05.427Z,25.07
2022-07-25T10:46:51.346Z,24.28
2022-07-25T10:49:50.114Z,25.09
2022-07-25T10:53:00.746Z,25.12
2022-07-25T10:56:05.641Z,24.64
2022-07-25T10:58:53.015Z,25.34
2022-07-25T11:01:38.470Z,25.31
2022-07-25T11:04:24.179Z,24.69
2022-07-25T11:07:14.030Z,25.34
2022-07-25T11:10:02.275Z,24.44
2022-07-25T11:12:48.261Z,25.50
2022-07-25T11:15:33.749Z,24.87
2022-07-25T11:18:19.405Z,25.66
2022-07-25T11:21:06.887Z,24.83
2022-07-25T11:23:53.025Z,25.64
2022-07-25T11:26:53.008Z,24.94
2022-07-25T11:29:39.167Z,25.84
2022-07-25T11:32:24.808Z,25.01
2022-07-25T11:35:11.537Z,25.06
2022-07-25T11:37:59.016Z,25.06
2022-07-25T11:40:45.156Z,25.71
2022-07-25T11:43:30.924Z,25.79
2022-07-25T11:46:18.533Z,25.06
2022-07-25T11:49:06.314Z,25.21
2022-07-25T11:51:52.004Z,25.75
2022-07-25T11:54:37.289Z,25.76
2022-07-25T11:57:25.402Z,25.78
2022-07-25T12:00:22.384Z,24.91
2022-07-25T12:03:19.142Z,25.13
2022-07-25T12:06:12.525Z,25.27
2022-07-25T12:08:58.106Z,25.88
2022-07-25T12:11:44.105Z,25.91
2022-07-25T12:14:35.150Z,24.86
2022-07-25T12:17:20.813Z,24.95
2022-07-25T12:20:13.268Z,25.68
2022-07-25T12:23:01.920Z,25.40
2022-07-25T12:25:48.022Z,25.66
2022-07-25T12:28:33.881Z,24.75
2022-07-25T12:31:19.805Z,25.71
2022-07-25T12:34:05.381Z,25.78
2022-07-25T12:36:50.798Z,25.65
2022-07-25T12:39:36.754Z,24.99
2022-07-25T12:42:22.526Z,25.03
2022-07-25T12:45:08.785Z,25.81
2022-07-25T12:47:54.467Z,26.16
2022-07-25T12:50:39.795Z,26.19
2022-07-25T12:53:25.537Z,25.43
2022-07-25T12:56:10.920Z,25.75
2022-07-25T12:58:56.221Z,25.34
2022-07-25T13:01:41.663Z,26.07
2022-07-25T13:04:27.217Z,26.04
2022-07-25T13:07:13.833Z,26.01
2022-07-25T13:09:59.570Z,25.07
2022-07-25T13:12:45.501Z,25.14
2022-07-25T13:15:31.119Z,25.70
2022-07-25T13:18:16.558Z,24.97
2022-07-25T13:21:03.530Z,25.13
2022-07-25T13:23:49.086Z,25.07
2022-07-25T13:26:35.575Z,25.88
2022-07-25T13:29:20.964Z,25.72
2022-07-25T13:32:06.407Z,25.84
2022-07-25T13:34:51.726Z,25.98
2022-07-25T13:37:37.039Z,25.84
2022-07-25T13:40:22.234Z,24.99
2022-07-25T13:43:12.862Z,25.04
2022-07-25T13:45:58.598Z,25.80
2022-07-25T13:48:44.557Z,25.95
2022-07-25T13:51:30.220Z,25.01
2022-07-25T13:54:15.569Z,25.01
2022-07-25T13:57:02.017Z,25.84
2022-07-25T13:59:47.530Z,26.01
2022-07-25T14:02:32.932Z,25.29
2022-07-25T14:05:18.333Z,25.03
2022-07-25T14:08:03.694Z,25.97
2022-07-25T14:10:49.142Z,25.02
2022-07-25T14:13:35.545Z,25.44
2022-07-25T14:16:21.037Z,25.94
2022-07-25T14:19:06.709Z,25.92
2022-07-25T14:21:52.388Z,25.92
2022-07-25T14:24:37.761Z,25.25
2022-07-25T14:27:23.717Z,25.93
2022-07-25T14:30:09.605Z,25.02
2022-07-25T14:32:55.054Z,25.11
2022-07-25T14:35:40.727Z,25.69
2022-07-25T14:38:26.153Z,25.16
2022-07-25T14:41:13.272Z,25.53
2022-07-25T14:43:59.502Z,26.15
2022-07-25T14:46:45.355Z,25.20
2022-07-25T14:49:32.701Z,26.14
2022-07-25T14:52:18.698Z,25.94
2022-07-25T14:55:04.746Z,25.15
2022-07-25T14:57:50.294Z,26.06
2022-07-25T15:00:36.242Z,25.65
2022-07-25T15:03:21.725Z,25.87
2022-07-25T15:06:09.775Z,25.10
2022-07-25T15:08:55.519Z,25.09
2022-07-25T15:11:41.360Z,25.08
2022-07-25T15:14:26.796Z,25.22
2022-07-25T15:17:12.993Z,25.70
2022-07-25T15:19:58.637Z,25.92
2022-07-25T15:22:44.102Z,25.92
2022-07-25T15:28:37.699Z,25.70
2022-07-25T15:31:24.736Z,24.79
2022-07-25T15:34:12.061Z,25.72
2022-07-25T15:36:58.542Z,25.72
2022-07-25T15:39:45.381Z,24.94
2022-07-25T15:42:32.121Z,24.72
2022-07-25T15:45:36.248Z,25.60
2022-07-25T15:48:22.157Z,24.48
2022-07-25T15:51:07.884Z,25.57
2022-07-25T15:53:53.266Z,24.66
2022-07-25T15:56:39.768Z,24.65
2022-07-25T15:59:25.347Z,24.97
2022-07-25T16:02:13.156Z,24.75
2022-07-25T16:04:58.441Z,25.27
2022-07-25T16:07:44.392Z,25.32
2022-07-25T16:10:30.977Z,24.60
2022-07-25T16:13:16.405Z,25.43
2022-07-25T16:16:01.986Z,25.35
2022-07-25T16:18:47.938Z,25.59
2022-07-25T16:21:33.633Z,25.60
2022-07-25T16:24:19.316Z,25.01
2022-07-25T16:27:05.582Z,25.61
2022-07-25T16:29:51.406Z,25.49
2022-07-25T16:32:38.379Z,25.51
2022-07-25T16:35:24.499Z,25.32
2022-07-25T16:38:10.066Z,25.49
2022-07-25T16:40:55.458Z,24.52
2022-07-25T16:43:40.969Z,25.28
2022-07-25T16:46:28.586Z,25.04
2022-07-25T16:49:16.781Z,25.23
2022-07-25T16:52:02.280Z,24.45
2022-07-25T16:54:48.232Z,24.40
2022-07-25T16:57:33.897Z,25.31
2022-07-25T17:00:20.177Z,24.99
2022-07-25T17:03:06.435Z,25.06
2022-07-25T17:05:53.918Z,22.88
2022-07-25T17:08:39.147Z,24.46
2022-07-25T17:11:25.621Z,24.64
2022-07-25T17:14:10.936Z,25.25
2022-07-25T17:16:56.297Z,24.25
2022-07-25T17:19:41.739Z,25.27
2022-07-25T17:22:27.311Z,24.28
2022-07-25T17:25:12.724Z,24.90
2022-07-25T17:27:58.379Z,24.28
2022-07-25T17:30:44.142Z,25.12
2022-07-25T17:33:29.328Z,25.05
2022-07-25T17:36:14.887Z,25.02
2022-07-25T17:39:00.217Z,24.98
2022-07-25T17:41:45.754Z,24.91
2022-07-25T17:44:31.037Z,24.84
2022-07-25T17:47:17.241Z,24.75
2022-07-25T17:50:03.964Z,24.42
2022-07-25T17:52:50.910Z,24.62
2022-07-25T17:55:39.007Z,24.34
2022-07-25T17:58:24.675Z,24.46
2022-07-25T18:01:10.673Z,24.13
2022-07-25T18:03:56.301Z,24.24
2022-07-25T18:06:41.869Z,24.18
2022-07-25T18:09:27.758Z,23.31
2022-07-25T18:12:13.255Z,23.19
2022-07-25T18:14:58.709Z,23.05
2022-07-25T18:17:45.410Z,23.79
2022-07-25T18:20:31.283Z,22.66
2022-07-25T18:23:16.625Z,22.56
2022-07-25T18:26:02.079Z,22.71
2022-07-25T18:28:47.694Z,23.44
2022-07-25T18:31:33.927Z,23.38
2022-07-25T18:34:19.310Z,23.30
2022-07-25T18:37:05.572Z,22.36
2022-07-25T18:39:51.265Z,22.99
2022-07-25T18:42:37.844Z,23.09
2022-07-25T18:45:24.080Z,22.79
2022-07-25T18:48:10.151Z,22.90
2022-07-25T18:50:55.346Z,22.81
2022-07-25T18:53:44.748Z,22.35
2022-07-25T18:56:33.085Z,21.71
2022-07-25T18:59:18.515Z,22.62
2022-07-25T19:02:04.212Z,21.68
2022-07-25T19:04:49.786Z,21.62
2022-07-25T19:07:35.516Z,22.40
2022-07-25T19:10:21.053Z,21.53
2022-07-25T19:13:07.401Z,22.28
2022-07-25T19:15:53.096Z,21.39
2022-07-25T19:18:39.259Z,22.13
2022-07-25T19:21:25.338Z,21.99
2022-07-25T19:24:11.391Z,21.01
2022-07-25T19:26:57.345Z,21.87
2022-07-25T19:29:43.615Z,20.76
2022-07-25T19:32:29.174Z,20.66
2022-07-25T19:35:14.853Z,21.64
2022-07-25T19:38:00.228Z,21.58
2022-07-25T19:40:45.926Z,20.87
2022-07-25T19:43:31.943Z,21.62
2022-07-25T19:46:17.695Z,21.24
2022-07-25T19:49:07.087Z,21.57
2022-07-25T19:51:52.603Z,20.69
2022-07-25T19:54:39.425Z,21.54
2022-07-25T19:57:25.274Z,20.60
2022-07-25T20:00:11.601Z,20.53
2022-07-25T20:02:56.944Z,20.74
2022-07-25T20:05:42.422Z,21.10
2022-07-25T20:08:27.767Z,21.05
2022-07-25T20:11:13.177Z,20.77
2022-07-25T20:13:58.559Z,19.98
2022-07-25T20:16:43.907Z,20.75
2022-07-25T20:19:29.143Z,19.98
2022-07-25T20:22:14.491Z,20.75
2022-07-25T20:24:59.915Z,20.39
2022-07-25T20:27:45.414Z,19.80
2022-07-25T20:30:34.830Z,19.46
2022-07-25T20:33:22.201Z,20.41
2022-07-25T20:36:08.347Z,20.55
2022-07-25T20:38:54.058Z,20.02
2022-07-25T20:41:39.639Z,20.35
2022-07-25T20:44:25.375Z,20.48
2022-07-25T20:47:13.548Z,19.44
2022-07-25T20:49:58.894Z,19.35
2022-07-25T20:52:44.130Z,20.35
2022-07-25T20:55:31.267Z,19.49
2022-07-25T20:58:16.658Z,20.32
2022-07-25T21:01:01.938Z,19.51
2022-07-25T21:03:47.413Z,20.29
2022-07-25T21:06:32.904Z,19.15
2022-07-25T21:09:18.733Z,20.13
2022-07-25T21:12:04.923Z,20.02
2022-07-25T21:14:51.083Z,19.82
2022-07-25T21:17:36.278Z,19.87
2022-07-25T21:20:21.777Z,18.96
2022-07-25T21:23:07.154Z,18.81
2022-07-25T21:25:52.599Z,19.54
2022-07-25T21:28:38.067Z,18.88
2022-07-25T21:31:24.704Z,19.68
2022-07-25T21:34:10.972Z,18.68
2022-07-25T21:36:56.263Z,18.69
2022-07-25T21:39:42.516Z,18.65
2022-07-25T21:42:27.968Z,19.67
2022-07-25T21:45:13.234Z,19.64
2022-07-25T21:47:58.664Z,18.44
2022-07-25T21:50:47.989Z,19.22
2022-07-25T21:53:34.968Z,19.02
2022-07-25T21:56:20.690Z,18.62
2022-07-25T21:59:06.953Z,19.41
2022-07-25T22:01:52.618Z,19.32
2022-07-25T22:04:40.111Z,18.67
2022-07-25T22:07:25.498Z,19.33
2022-07-25T22:10:13.219Z,19.32
2022-07-25T22:12:58.938Z,19.04
2022-07-25T22:15:44.563Z,18.23
2022-07-25T22:18:30.885Z,18.97
2022-07-25T22:21:17.868Z,19.18
2022-07-25T22:24:05.804Z,18.93
2022-07-25T22:26:51.185Z,18.19
2022-07-25T22:29:38.390Z,19.05
2022-07-25T22:32:24.013Z,18.68
2022-07-25T22:35:09.901Z,17.17
2022-07-25T22:37:55.409Z,17.85
2022-07-25T22:40:41.482Z,18.85
2022-07-25T22:43:57.053Z,18.85
2022-07-25T22:46:33.150Z,18.80
2022-07-25T22:49:18.624Z,18.44
2022-07-25T22:52:05.310Z,18.77
2022-07-25T22:54:50.943Z,17.60
2022-07-25T22:57:37.816Z,17.85
2022-07-25T23:00:23.367Z,18.68
2022-07-25T23:03:08.759Z,18.45
2022-07-25T23:05:54.094Z,18.31
2022-07-25T23:08:42.386Z,18.46
2022-07-25T23:11:28.100Z,18.50
2022-07-25T23:14:13.790Z,17.31
2022-07-25T23:17:17.660Z,18.17
2022-07-25T23:20:04.666Z,17.30
2022-07-25T23:22:50.453Z,17.48
2022-07-25T23:25:41.580Z,17.20
2022-07-25T23:28:27.251Z,17.20
2022-07-25T23:31:13.012Z,18.15
2022-07-25T23:33:58.518Z,17.22
2022-07-25T23:36:43.820Z,17.94
2022-07-25T23:39:29.680Z,18.14
2022-07-25T23:42:15.256Z,17.67
2022-07-25T23:45:00.614Z,17.92
2022-07-25T23:47:45.986Z,18.00
2022-07-25T23:50:31.978Z,18.11
2022-07-25T23:53:17.432Z,18.12
2022-07-25T23:56:02.813Z,18.03
2022-07-25T23:58:49.983Z,17.89
